Startpagina
METAR-TAF:

METAR-TAF

Vliegvelden :

Puerto Maldonado, Peru

breedte: 12-38S, lengte: 069-12W, hoogte: 265 m

Actueel weer

Dit bericht is 17 uur en het 53 minuten geleden gemaakt, om 19:00 UTC
Wind 5 kt uit het oostzuidoosten, variërend tussen het noorden en het zuidzuidoosten
Temperatuur 31°C
Vochtigheid 59%
Druk 1011 hPa
Zicht 10 km of meer
Verspreide wolken op 1500 ft

METAR: SPTU 091900Z 11005KT 010V160 9999 SCT015 31/22 Q1011 RMK BIRD HAZARD RWY 01/19 PP000

Tijdstip: 07:53 (12:53 UTC)

Verwachting

Dit bericht is 53 minuten geleden gemaakt, om 12:00 UTC
Verwachting geldig van 09 om 12 UTC tot 10 om 12 UTC
Wind 3 kt uit het zuiden
Zicht 10 km of meer
geen wolken onder 1500 m en geen cumulonimbus
Tijdelijke
van 09 om 14 UTC tot 09 om 19 UTC
Gebroken wolken op 2000 ft

TAF: SPTU 091200Z 0912/1012 18003KT CAVOK TX34/0919Z TN22/1011Z TEMPO 0914/0919 BKN020

Waarnemingen en weersverwachtingen van meer dan 4000 vliegvelden (METAR en TAF).

De beschikbare stations zijn de gele en rode punten op de kaart.

Ga met uw muis naar het station om de naam te zien.

Klik dan om waarnemingen en weersverwachtingen te zien.

kaart wijzigen: klik op de groene knoppen met een zwart kruis om in te zoomen, op de groene knop met een streepje om uit te zoomen of op de groene pijlen voor aangrenzende kaarten.


METAR-TAF: